createdAt,value
2019-02-02T00:00:18.819Z,4.31
2019-02-02T00:02:22.839Z,4.32
2019-02-02T00:04:25.999Z,4.34
2019-02-02T00:06:28.877Z,4.35
2019-02-02T00:08:31.850Z,4.36
2019-02-02T00:10:34.843Z,4.38
2019-02-02T00:12:37.768Z,4.37
2019-02-02T00:14:41.622Z,4.37
2019-02-02T00:16:44.571Z,4.38
2019-02-02T00:18:48.484Z,4.38
2019-02-02T00:20:51.477Z,4.39
2019-02-02T00:22:56.001Z,4.39
2019-02-02T00:24:58.989Z,4.38
2019-02-02T00:27:04.004Z,4.37
2019-02-02T00:29:06.784Z,4.35
2019-02-02T00:31:09.702Z,4.33
2019-02-02T00:33:12.627Z,4.32
2019-02-02T00:35:16.618Z,4.30
2019-02-02T00:37:21.603Z,4.31
2019-02-02T00:39:24.320Z,4.32
2019-02-02T00:41:27.278Z,4.31
2019-02-02T00:43:30.246Z,4.31
2019-02-02T00:45:33.131Z,4.35
2019-02-02T00:47:36.083Z,4.35
2019-02-02T00:49:39.005Z,4.30
2019-02-02T00:51:41.942Z,4.18
2019-02-02T00:53:44.869Z,4.07
2019-02-02T00:55:47.849Z,4.01
2019-02-02T00:57:54.162Z,4.02
2019-02-02T00:59:55.525Z,4.04
2019-02-02T01:01:58.423Z,4.02
2019-02-02T01:04:03.371Z,3.97
2019-02-02T01:06:06.349Z,3.93
2019-02-02T01:08:09.401Z,3.97
2019-02-02T01:10:16.262Z,4.01
2019-02-02T01:12:19.166Z,4.04
2019-02-02T01:14:22.053Z,4.09
2019-02-02T01:16:25.072Z,4.12
2019-02-02T01:18:28.143Z,4.05
2019-02-02T01:20:32.107Z,3.94
2019-02-02T01:22:36.141Z,3.79
2019-02-02T01:24:39.021Z,3.68
2019-02-02T01:26:41.950Z,3.65
2019-02-02T01:28:44.794Z,3.61
2019-02-02T01:30:48.748Z,3.51
2019-02-02T01:32:51.573Z,3.41
2019-02-02T01:34:54.491Z,3.39
2019-02-02T01:36:58.345Z,3.39
2019-02-02T01:39:04.630Z,3.36
2019-02-02T01:41:07.442Z,3.37
2019-02-02T01:43:12.438Z,3.44
2019-02-02T01:45:19.025Z,3.52
2019-02-02T01:47:22.204Z,3.56
2019-02-02T01:49:25.070Z,3.54
2019-02-02T01:51:27.949Z,3.54
2019-02-02T01:53:31.033Z,3.49
2019-02-02T01:55:33.910Z,3.52
2019-02-02T01:57:37.149Z,3.57
2019-02-02T01:59:39.967Z,3.58
2019-02-02T02:01:42.827Z,3.60
2019-02-02T02:03:45.780Z,3.62
2019-02-02T02:05:48.634Z,3.62
2019-02-02T02:07:51.618Z,3.64
2019-02-02T02:09:55.597Z,3.63
2019-02-02T02:11:58.426Z,3.62
2019-02-02T02:14:01.369Z,3.57
2019-02-02T02:16:05.894Z,3.49
2019-02-02T02:18:08.933Z,3.45
2019-02-02T02:20:12.379Z,3.43
2019-02-02T02:22:15.363Z,3.46
2019-02-02T02:24:18.380Z,3.47
2019-02-02T02:26:21.301Z,3.43
2019-02-02T02:28:28.206Z,3.39
2019-02-02T02:30:28.828Z,3.30
2019-02-02T02:32:31.691Z,3.21
2019-02-02T02:34:34.629Z,3.18
2019-02-02T02:36:38.600Z,3.16
2019-02-02T02:38:42.581Z,3.18
2019-02-02T02:40:45.485Z,3.17
2019-02-02T02:42:48.428Z,3.11
2019-02-02T02:44:51.335Z,3.08
2019-02-02T02:46:54.130Z,3.07
2019-02-02T02:48:57.192Z,3.09
2019-02-02T02:51:00.034Z,3.11
2019-02-02T02:53:02.962Z,3.13
2019-02-02T02:55:07.180Z,3.13
2019-02-02T02:57:09.965Z,3.12
2019-02-02T02:59:13.005Z,3.20
2019-02-02T03:03:27.450Z,3.36
2019-02-02T03:05:30.325Z,3.48
2019-02-02T03:07:33.157Z,3.49
2019-02-02T03:09:36.004Z,3.53
2019-02-02T03:11:39.869Z,3.56
2019-02-02T03:13:42.777Z,3.57
2019-02-02T03:15:45.849Z,3.53
2019-02-02T03:17:48.800Z,3.48
2019-02-02T03:19:51.740Z,3.45
2019-02-02T03:21:54.968Z,3.42
2019-02-02T03:23:57.826Z,3.39
2019-02-02T03:26:00.638Z,3.46
2019-02-02T03:28:03.606Z,3.51
2019-02-02T03:30:08.106Z,3.52
2019-02-02T03:32:10.964Z,3.47
2019-02-02T03:34:13.854Z,3.36
2019-02-02T03:36:16.781Z,3.30
2019-02-02T03:38:19.603Z,3.27
2019-02-02T03:40:22.458Z,3.19
2019-02-02T03:42:25.349Z,3.14
2019-02-02T03:44:28.361Z,3.16
2019-02-02T03:46:31.209Z,3.20
2019-02-02T03:48:34.120Z,3.20
2019-02-02T03:50:38.020Z,3.20
2019-02-02T03:52:40.910Z,3.25
2019-02-02T03:54:43.852Z,3.27
2019-02-02T03:56:46.638Z,3.31
2019-02-02T03:58:49.374Z,3.31
2019-02-02T04:00:52.577Z,3.31
2019-02-02T04:02:55.413Z,3.30
2019-02-02T04:05:01.065Z,3.32
2019-02-02T04:07:03.921Z,3.32
2019-02-02T04:09:07.463Z,3.35
2019-02-02T04:11:10.340Z,3.34
2019-02-02T04:13:13.267Z,3.36
2019-02-02T04:15:19.110Z,3.38
2019-02-02T04:17:21.885Z,3.39
2019-02-02T04:19:24.755Z,3.40
2019-02-02T04:21:28.800Z,3.42
2019-02-02T04:23:31.925Z,3.43
2019-02-02T04:25:34.925Z,3.46
2019-02-02T04:27:37.805Z,3.48
2019-02-02T04:29:40.802Z,3.50
2019-02-02T04:31:46.319Z,3.49
2019-02-02T04:33:49.256Z,3.45
2019-02-02T04:35:52.107Z,3.35
2019-02-02T04:37:54.943Z,3.26
2019-02-02T04:39:57.787Z,3.23
2019-02-02T04:42:00.653Z,3.27
2019-02-02T04:44:03.605Z,3.34
2019-02-02T04:46:06.600Z,3.42
2019-02-02T04:48:09.533Z,3.49
2019-02-02T04:50:13.795Z,3.54
2019-02-02T04:52:16.753Z,3.58
2019-02-02T04:54:19.765Z,3.62
2019-02-02T04:56:22.771Z,3.66
2019-02-02T04:58:25.629Z,3.69
2019-02-02T05:00:28.673Z,3.67
2019-02-02T05:02:31.465Z,3.65
2019-02-02T05:04:34.406Z,3.67
2019-02-02T05:06:37.287Z,3.72
2019-02-02T05:08:41.803Z,3.72
2019-02-02T05:10:44.810Z,3.69
2019-02-02T05:12:47.915Z,3.59
2019-02-02T05:14:50.787Z,3.54
2019-02-02T05:16:53.598Z,3.52
2019-02-02T05:18:56.521Z,3.56
2019-02-02T05:20:59.477Z,3.61
2019-02-02T05:23:02.544Z,3.65
2019-02-02T05:25:05.997Z,3.68
2019-02-02T05:27:08.756Z,3.68
2019-02-02T05:29:11.565Z,3.68
2019-02-02T05:31:14.437Z,3.66
2019-02-02T05:33:17.443Z,3.64
2019-02-02T05:35:20.184Z,3.63
2019-02-02T05:37:23.085Z,3.62
2019-02-02T05:39:25.931Z,3.61
2019-02-02T05:41:28.794Z,3.61
2019-02-02T05:43:31.758Z,3.63
2019-02-02T05:45:34.687Z,3.65
2019-02-02T05:47:37.613Z,3.68
2019-02-02T05:49:40.462Z,3.73
2019-02-02T05:51:43.419Z,3.77
2019-02-02T05:53:46.476Z,3.83
2019-02-02T05:55:49.793Z,3.87
2019-02-02T05:57:52.940Z,3.88
2019-02-02T05:59:55.815Z,3.89
2019-02-02T06:01:58.693Z,3.92
2019-02-02T06:04:01.504Z,3.91
2019-02-02T06:06:05.370Z,3.90
2019-02-02T06:08:08.309Z,3.87
2019-02-02T06:10:12.668Z,3.77
2019-02-02T06:12:17.246Z,3.64
2019-02-02T06:14:20.271Z,3.56
2019-02-02T06:16:24.336Z,3.49
2019-02-02T06:18:28.509Z,3.47
2019-02-02T06:20:31.589Z,3.42
2019-02-02T06:22:34.359Z,3.36
2019-02-02T06:24:37.213Z,3.31
2019-02-02T06:26:40.161Z,3.26
2019-02-02T06:28:43.188Z,3.20
2019-02-02T06:30:45.994Z,3.16
2019-02-02T06:32:48.903Z,3.16
2019-02-02T06:34:51.807Z,3.13
2019-02-02T06:36:54.554Z,3.14
2019-02-02T06:38:57.495Z,3.15
2019-02-02T06:41:00.367Z,3.18
2019-02-02T06:43:04.470Z,3.22
2019-02-02T06:45:10.417Z,3.20
2019-02-02T06:47:14.420Z,3.19
2019-02-02T06:49:17.263Z,3.16
2019-02-02T06:51:21.317Z,3.15
2019-02-02T06:53:25.939Z,3.18
2019-02-02T06:55:29.895Z,3.22
2019-02-02T06:57:32.756Z,3.26
2019-02-02T06:59:35.687Z,3.28
2019-02-02T07:01:38.516Z,3.30
2019-02-02T07:03:47.657Z,3.30
2019-02-02T07:05:46.687Z,3.31
2019-02-02T07:07:49.685Z,3.33
2019-02-02T07:09:52.697Z,3.35
2019-02-02T07:11:55.481Z,3.37
2019-02-02T07:13:58.453Z,3.40
2019-02-02T07:16:01.319Z,3.39
2019-02-02T07:18:04.279Z,3.35
2019-02-02T07:20:08.663Z,3.28
2019-02-02T07:22:11.627Z,3.21
2019-02-02T07:24:14.489Z,3.15
2019-02-02T07:26:17.338Z,3.13
2019-02-02T07:28:20.363Z,3.14
2019-02-02T07:30:28.589Z,3.18
2019-02-02T07:32:27.903Z,3.25
2019-02-02T07:34:30.994Z,3.31
2019-02-02T07:36:33.904Z,3.36
2019-02-02T07:38:36.818Z,3.39
2019-02-02T07:40:42.408Z,3.36
2019-02-02T07:42:45.359Z,3.35
2019-02-02T07:44:49.402Z,3.37
2019-02-02T07:46:52.291Z,3.41
2019-02-02T07:48:55.348Z,3.46
2019-02-02T07:50:58.208Z,3.48
2019-02-02T07:53:01.075Z,3.51
2019-02-02T07:55:04.124Z,3.50
2019-02-02T07:57:07.140Z,3.50
2019-02-02T07:59:10.274Z,3.48
2019-02-02T08:01:13.264Z,3.48
2019-02-02T08:03:16.130Z,3.49
2019-02-02T08:05:18.974Z,3.49
2019-02-02T08:07:21.872Z,3.46
2019-02-02T08:09:24.738Z,3.41
2019-02-02T08:11:30.728Z,3.38
2019-02-02T08:13:33.599Z,3.35
2019-02-02T08:15:36.596Z,3.33
2019-02-02T08:17:39.339Z,3.33
2019-02-02T08:19:42.303Z,3.34
2019-02-02T08:21:45.271Z,3.35
2019-02-02T08:23:48.038Z,3.37
2019-02-02T08:25:51.038Z,3.35
2019-02-02T08:27:53.902Z,3.30
2019-02-02T08:29:56.785Z,3.27
2019-02-02T08:31:59.711Z,3.27
2019-02-02T08:34:02.708Z,3.29
2019-02-02T08:36:08.316Z,3.31
2019-02-02T08:38:12.256Z,3.34
2019-02-02T08:40:15.565Z,3.36
2019-02-02T08:42:18.557Z,3.39
2019-02-02T08:44:22.425Z,3.42
2019-02-02T08:46:26.603Z,3.46
2019-02-02T08:48:32.122Z,3.49
2019-02-02T08:50:37.712Z,3.54
2019-02-02T08:52:40.694Z,3.58
2019-02-02T08:54:43.621Z,3.64
2019-02-02T08:56:48.498Z,3.67
2019-02-02T08:58:51.515Z,3.70
2019-02-02T09:01:04.332Z,3.73
2019-02-02T09:03:02.193Z,3.72
2019-02-02T09:05:05.716Z,3.69
2019-02-02T09:07:08.705Z,3.67
2019-02-02T09:09:11.624Z,3.67
2019-02-02T09:11:14.680Z,3.67
2019-02-02T09:13:17.708Z,3.69
2019-02-02T09:15:21.693Z,3.72
2019-02-02T09:17:24.595Z,3.71
2019-02-02T09:19:30.665Z,3.69
2019-02-02T09:21:33.533Z,3.67
2019-02-02T09:23:36.355Z,3.64
2019-02-02T09:25:39.492Z,3.63
2019-02-02T09:27:42.431Z,3.63
2019-02-02T09:29:47.819Z,3.63
2019-02-02T09:31:52.162Z,3.64
2019-02-02T09:33:55.041Z,3.68
2019-02-02T09:35:57.776Z,3.71
2019-02-02T09:38:00.796Z,3.73
2019-02-02T09:40:04.699Z,3.74
2019-02-02T09:42:09.994Z,3.77
2019-02-02T09:44:13.025Z,3.78
2019-02-02T09:46:16.059Z,3.77
2019-02-02T09:48:19.130Z,3.77
2019-02-02T09:50:23.252Z,3.80
2019-02-02T09:52:26.297Z,3.87
2019-02-02T09:54:29.282Z,3.99
2019-02-02T09:56:32.307Z,4.08
2019-02-02T09:58:35.484Z,4.18
2019-02-02T10:00:38.604Z,4.24
2019-02-02T10:02:41.592Z,4.26
2019-02-02T10:04:44.817Z,4.23
2019-02-02T10:06:47.773Z,4.21
2019-02-02T10:08:50.809Z,4.18
2019-02-02T10:10:53.815Z,4.16
2019-02-02T10:12:57.073Z,4.12
2019-02-02T10:15:00.099Z,4.11
2019-02-02T10:17:03.310Z,4.10
2019-02-02T10:19:06.396Z,4.08
2019-02-02T10:21:09.407Z,4.09
2019-02-02T10:23:12.217Z,4.09
2019-02-02T10:25:17.359Z,4.08
2019-02-02T10:27:20.476Z,4.11
2019-02-02T10:29:23.334Z,4.13
2019-02-02T10:31:26.293Z,4.14
2019-02-02T10:33:29.151Z,4.19
2019-02-02T10:35:32.223Z,4.22
2019-02-02T10:37:36.218Z,4.19
2019-02-02T10:39:39.123Z,4.20
2019-02-02T10:41:42.127Z,4.23
2019-02-02T10:43:45.011Z,4.25
2019-02-02T10:45:47.804Z,4.30
2019-02-02T10:47:50.591Z,4.35
2019-02-02T10:49:54.091Z,4.39
2019-02-02T10:51:58.016Z,4.41
2019-02-02T10:54:02.008Z,4.44
2019-02-02T10:56:04.993Z,4.42
2019-02-02T10:58:07.895Z,4.38
2019-02-02T11:00:14.286Z,4.38
2019-02-02T11:02:19.469Z,4.42
2019-02-02T11:04:22.753Z,4.43
2019-02-02T11:06:26.607Z,4.45
2019-02-02T11:08:29.484Z,4.46
2019-02-02T11:10:32.660Z,4.46
2019-02-02T11:12:35.475Z,4.49
2019-02-02T11:14:38.444Z,4.49
2019-02-02T11:16:41.522Z,4.49
2019-02-02T11:18:44.744Z,4.46
2019-02-02T11:20:48.597Z,4.44
2019-02-02T11:22:51.574Z,4.45
2019-02-02T11:24:55.620Z,4.45
2019-02-02T11:26:58.604Z,4.45
2019-02-02T11:29:02.211Z,4.45
2019-02-02T11:31:05.326Z,4.46
2019-02-02T11:33:08.225Z,4.49
2019-02-02T11:35:12.277Z,4.51
2019-02-02T11:37:15.034Z,4.51
2019-02-02T11:39:17.929Z,4.52
2019-02-02T11:41:20.948Z,4.53
2019-02-02T11:43:23.987Z,4.55
2019-02-02T11:45:27.259Z,4.56
2019-02-02T11:47:30.153Z,4.58
2019-02-02T11:49:33.181Z,4.58
2019-02-02T11:51:36.204Z,4.59
2019-02-02T11:53:38.948Z,4.64
2019-02-02T11:55:42.132Z,4.69
2019-02-02T11:57:45.121Z,4.72
2019-02-02T11:59:48.046Z,4.72
2019-02-02T12:01:50.996Z,4.72
2019-02-02T12:03:56.911Z,4.73
2019-02-02T12:06:00.299Z,4.78
2019-02-02T12:08:06.563Z,4.86
2019-02-02T12:10:10.947Z,4.94
2019-02-02T12:12:14.445Z,4.98
2019-02-02T12:14:17.394Z,5.23
2019-02-02T12:16:20.312Z,5.49
2019-02-02T12:18:23.170Z,5.59
2019-02-02T12:20:26.033Z,5.63
2019-02-02T12:22:30.108Z,5.68
2019-02-02T12:24:34.961Z,5.75
2019-02-02T12:26:37.928Z,5.83
2019-02-02T12:28:41.142Z,5.91
2019-02-02T12:30:44.275Z,5.96
2019-02-02T12:32:47.231Z,5.97
2019-02-02T12:34:50.182Z,5.93
2019-02-02T12:36:53.247Z,5.87
2019-02-02T12:38:56.083Z,5.85
2019-02-02T12:40:59.726Z,5.83
2019-02-02T12:43:03.791Z,5.75
2019-02-02T12:45:10.329Z,5.69
2019-02-02T12:47:13.572Z,5.65
2019-02-02T12:49:16.281Z,5.63
2019-02-02T12:51:19.197Z,5.62
2019-02-02T12:53:22.109Z,5.61
2019-02-02T12:55:26.086Z,5.61
2019-02-02T12:57:29.144Z,5.64
2019-02-02T12:59:32.130Z,5.67
2019-02-02T13:01:35.191Z,5.69
2019-02-02T13:03:38.071Z,5.74
2019-02-02T13:05:40.962Z,5.81
2019-02-02T13:07:43.980Z,5.77
2019-02-02T13:09:49.738Z,5.77
2019-02-02T13:11:52.672Z,5.76
2019-02-02T13:13:56.521Z,5.76
2019-02-02T13:15:59.559Z,5.80
2019-02-02T13:18:02.459Z,5.86
2019-02-02T13:20:06.106Z,5.88
2019-02-02T13:22:08.938Z,5.88
2019-02-02T13:24:12.814Z,5.86
2019-02-02T13:26:15.751Z,5.90
2019-02-02T13:28:18.602Z,5.94
2019-02-02T13:30:23.878Z,5.94
2019-02-02T13:32:26.736Z,5.92
2019-02-02T13:34:29.592Z,5.89
2019-02-02T13:36:32.496Z,5.88
2019-02-02T13:38:35.448Z,5.89
2019-02-02T13:40:38.461Z,5.92
2019-02-02T13:42:50.265Z,5.94
2019-02-02T13:44:53.089Z,5.99
2019-02-02T13:46:56.064Z,6.04
2019-02-02T13:48:59.050Z,6.12
2019-02-02T13:51:01.896Z,6.22
2019-02-02T13:53:05.967Z,6.28
2019-02-02T13:55:08.916Z,6.31
2019-02-02T13:57:11.769Z,6.25
2019-02-02T13:59:14.670Z,6.22
2019-02-02T14:01:20.042Z,6.24
2019-02-02T14:03:23.029Z,6.28
2019-02-02T14:05:27.375Z,6.32
2019-02-02T14:07:30.355Z,6.35
2019-02-02T14:09:33.157Z,6.36
2019-02-02T14:11:36.063Z,6.36
2019-02-02T14:13:39.142Z,6.33
2019-02-02T14:15:42.158Z,6.36
2019-02-02T14:17:45.073Z,6.42
2019-02-02T14:19:47.955Z,6.48
2019-02-02T14:21:50.906Z,6.51
2019-02-02T14:23:54.836Z,6.53
2019-02-02T14:25:57.747Z,6.56
2019-02-02T14:28:00.856Z,6.61
2019-02-02T14:30:13.199Z,6.66
2019-02-02T14:32:16.211Z,6.73
2019-02-02T14:34:21.751Z,6.83
2019-02-02T14:36:24.652Z,6.86
2019-02-02T14:38:27.609Z,6.89
2019-02-02T14:40:30.531Z,6.87
2019-02-02T14:42:33.376Z,6.84
2019-02-02T14:44:36.128Z,6.82
2019-02-02T14:46:41.631Z,6.80
2019-02-02T14:48:44.548Z,6.80
2019-02-02T14:50:47.500Z,6.80
2019-02-02T14:52:51.012Z,6.81
2019-02-02T14:54:53.942Z,6.78
2019-02-02T14:56:56.819Z,6.78
2019-02-02T14:58:59.957Z,6.77
2019-02-02T15:01:03.986Z,6.72
2019-02-02T15:03:07.232Z,6.64
2019-02-02T15:05:10.071Z,6.55
2019-02-02T15:07:13.134Z,6.45
2019-02-02T15:09:16.056Z,6.41
2019-02-02T15:11:18.914Z,6.40
2019-02-02T15:13:21.819Z,6.41
2019-02-02T15:15:24.720Z,6.37
2019-02-02T15:17:27.677Z,6.31
2019-02-02T15:19:30.544Z,6.33
2019-02-02T15:21:33.363Z,6.35
2019-02-02T15:23:36.482Z,6.34
2019-02-02T15:25:39.352Z,6.32
2019-02-02T15:27:45.375Z,6.34
2019-02-02T15:29:48.355Z,6.34
2019-02-02T15:31:51.242Z,6.29
2019-02-02T15:33:55.197Z,6.25
2019-02-02T15:35:57.978Z,6.26
2019-02-02T15:38:00.946Z,6.27
2019-02-02T15:40:04.482Z,6.27
2019-02-02T15:42:07.289Z,6.22
2019-02-02T15:44:10.212Z,6.21
2019-02-02T15:46:13.067Z,6.24
2019-02-02T15:48:15.912Z,6.27
2019-02-02T15:50:18.728Z,6.28
2019-02-02T15:52:21.717Z,6.24
2019-02-02T15:54:24.655Z,6.21
2019-02-02T15:56:27.611Z,6.21
2019-02-02T15:58:33.815Z,6.18
2019-02-02T16:00:37.659Z,6.16
2019-02-02T16:02:40.677Z,6.14
2019-02-02T16:04:43.752Z,6.11
2019-02-02T16:06:46.605Z,6.11
2019-02-02T16:08:49.631Z,6.09
2019-02-02T16:10:52.500Z,6.06
2019-02-02T16:12:55.383Z,6.04
2019-02-02T16:14:58.345Z,6.02
2019-02-02T16:17:01.221Z,6.01
2019-02-02T16:19:05.988Z,5.98
2019-02-02T16:21:09.260Z,5.95
2019-02-02T16:23:12.275Z,5.94
2019-02-02T16:25:15.015Z,5.95
2019-02-02T16:27:17.999Z,5.97
2019-02-02T16:29:21.050Z,5.98
2019-02-02T16:31:23.992Z,5.95
2019-02-02T16:33:26.975Z,5.89
2019-02-02T16:35:29.946Z,5.85
2019-02-02T16:37:32.917Z,5.86
2019-02-02T16:39:35.663Z,5.85
2019-02-02T16:41:38.534Z,5.81
2019-02-02T16:43:43.330Z,5.78
2019-02-02T16:45:46.520Z,5.80
2019-02-02T16:47:49.504Z,5.85
2019-02-02T16:49:52.463Z,5.86
2019-02-02T16:51:55.357Z,5.88
2019-02-02T16:53:58.278Z,5.91
2019-02-02T16:56:01.671Z,5.91
2019-02-02T16:58:04.616Z,5.92
2019-02-02T17:00:11.995Z,5.93
2019-02-02T17:02:14.742Z,5.90
2019-02-02T17:04:17.689Z,5.85
2019-02-02T17:06:20.615Z,5.80
2019-02-02T17:08:23.610Z,5.83
2019-02-02T17:10:31.420Z,5.83
2019-02-02T17:12:34.282Z,5.81
2019-02-02T17:14:37.214Z,5.79
2019-02-02T17:16:40.349Z,5.78
2019-02-02T17:18:45.195Z,5.79
2019-02-02T17:20:48.127Z,5.81
2019-02-02T17:22:50.936Z,5.82
2019-02-02T17:24:53.989Z,5.82
2019-02-02T17:26:58.973Z,5.82
2019-02-02T17:29:03.541Z,5.74
2019-02-02T17:31:06.536Z,5.65
2019-02-02T17:33:11.946Z,5.63
2019-02-02T17:35:15.440Z,5.60
2019-02-02T17:37:18.299Z,5.57
2019-02-02T17:39:21.876Z,5.54
2019-02-02T17:41:24.927Z,5.53
2019-02-02T17:43:28.036Z,5.52
2019-02-02T17:45:31.265Z,5.52
2019-02-02T17:47:35.127Z,5.54
2019-02-02T17:49:38.167Z,5.57
2019-02-02T17:51:41.152Z,5.58
2019-02-02T17:53:44.200Z,5.59
2019-02-02T17:55:47.264Z,5.60
2019-02-02T17:57:50.243Z,5.61
2019-02-02T17:59:54.433Z,5.61
2019-02-02T18:02:00.554Z,5.62
2019-02-02T18:04:06.068Z,5.63
2019-02-02T18:06:08.877Z,5.63
2019-02-02T18:08:11.880Z,5.61
2019-02-02T18:10:15.159Z,5.60
2019-02-02T18:12:18.005Z,5.60
2019-02-02T18:14:20.787Z,5.59
2019-02-02T18:16:23.841Z,5.53
2019-02-02T18:18:27.093Z,5.42
2019-02-02T18:20:30.057Z,5.25
2019-02-02T18:22:32.987Z,5.09
2019-02-02T18:24:35.982Z,4.98
2019-02-02T18:26:38.873Z,4.94
2019-02-02T18:28:44.918Z,4.91
2019-02-02T18:30:47.853Z,4.91
2019-02-02T18:32:50.651Z,4.93
2019-02-02T18:34:53.731Z,4.87
2019-02-02T18:36:56.790Z,4.85
2019-02-02T18:38:59.630Z,4.77
2019-02-02T18:41:02.672Z,4.77
2019-02-02T18:43:05.594Z,4.83
2019-02-02T18:45:11.105Z,4.90
2019-02-02T18:47:14.268Z,4.97
2019-02-02T18:49:17.232Z,5.06
2019-02-02T18:51:20.201Z,5.07
2019-02-02T18:53:25.004Z,5.09
2019-02-02T18:55:36.069Z,5.12
2019-02-02T18:57:40.080Z,5.17
2019-02-02T18:59:43.054Z,5.16
2019-02-02T19:01:46.015Z,5.12
2019-02-02T19:03:49.005Z,5.05
2019-02-02T19:05:54.820Z,5.05
2019-02-02T19:07:57.709Z,5.08
2019-02-02T19:10:00.880Z,5.10
2019-02-02T19:12:03.938Z,5.11
2019-02-02T19:14:07.005Z,5.11
2019-02-02T19:16:10.159Z,5.12
2019-02-02T19:18:13.098Z,5.14
2019-02-02T19:20:17.823Z,5.16
2019-02-02T19:22:20.885Z,5.15
2019-02-02T19:24:26.163Z,5.14
2019-02-02T19:26:29.538Z,5.11
2019-02-02T19:28:39.963Z,5.09
2019-02-02T19:30:41.646Z,5.09
2019-02-02T19:32:44.756Z,5.11
2019-02-02T19:34:48.029Z,5.12
2019-02-02T19:36:51.098Z,5.13
2019-02-02T19:38:54.239Z,5.13
2019-02-02T19:40:57.866Z,5.16
2019-02-02T19:43:00.888Z,5.19
2019-02-02T19:45:04.216Z,5.20
2019-02-02T19:47:15.866Z,5.21
2019-02-02T19:49:12.362Z,5.22
2019-02-02T19:51:15.518Z,5.22
2019-02-02T19:53:19.684Z,5.21
2019-02-02T19:55:23.666Z,5.21
2019-02-02T19:57:26.853Z,5.19
2019-02-02T19:59:29.896Z,5.16
2019-02-02T20:01:33.032Z,5.12
2019-02-02T20:03:36.104Z,5.10
2019-02-02T20:05:39.350Z,5.06
2019-02-02T20:07:42.317Z,5.04
2019-02-02T20:09:45.311Z,5.04
2019-02-02T20:11:48.471Z,5.04
2019-02-02T20:13:51.603Z,5.04
2019-02-02T20:15:55.732Z,5.03
2019-02-02T20:18:09.323Z,5.05
2019-02-02T20:20:05.905Z,5.07
2019-02-02T20:22:08.955Z,5.10
2019-02-02T20:25:00.553Z,5.19
2019-02-02T20:27:03.457Z,5.15
2019-02-02T20:29:06.417Z,5.19
2019-02-02T20:31:09.492Z,5.21
2019-02-02T20:33:12.350Z,5.22
2019-02-02T20:35:15.798Z,5.22
2019-02-02T20:37:19.747Z,5.21
2019-02-02T20:39:22.748Z,5.19
2019-02-02T20:41:25.683Z,5.15
2019-02-02T20:43:28.698Z,5.14
2019-02-02T20:45:33.174Z,5.12
2019-02-02T20:47:36.258Z,5.10
2019-02-02T20:49:39.155Z,5.08
2019-02-02T20:51:42.642Z,5.10
2019-02-02T20:53:45.622Z,5.12
2019-02-02T20:55:49.611Z,5.15
2019-02-02T20:57:52.694Z,5.15
2019-02-02T20:59:55.689Z,5.19
2019-02-02T21:01:59.133Z,5.22
2019-02-02T21:04:02.129Z,5.24
2019-02-02T21:06:04.999Z,5.25
2019-02-02T21:08:08.007Z,5.21
2019-02-02T21:10:13.661Z,5.19
2019-02-02T21:12:16.805Z,5.19
2019-02-02T21:14:20.170Z,5.21
2019-02-02T21:16:24.555Z,5.24
2019-02-02T21:18:27.784Z,5.24
2019-02-02T21:20:32.286Z,5.23
2019-02-02T21:22:35.756Z,5.19
2019-02-02T21:24:39.560Z,5.21
2019-02-02T21:26:43.957Z,5.22
2019-02-02T21:28:50.619Z,5.23
2019-02-02T21:30:52.052Z,5.22
2019-02-02T21:32:55.049Z,5.19
2019-02-02T21:34:58.207Z,5.20
2019-02-02T21:37:01.347Z,5.17
2019-02-02T21:39:07.105Z,5.20
2019-02-02T21:41:10.281Z,5.22
2019-02-02T21:43:13.270Z,5.23
2019-02-02T21:45:16.169Z,5.17
2019-02-02T21:47:19.690Z,5.14
2019-02-02T21:49:22.815Z,5.13
2019-02-02T21:51:25.811Z,5.14
2019-02-02T21:53:28.932Z,5.09
2019-02-02T21:55:32.864Z,4.98
2019-02-02T21:57:35.894Z,4.98
2019-02-02T21:59:38.810Z,4.95
2019-02-02T22:01:42.000Z,4.90
2019-02-02T22:03:45.153Z,4.91
2019-02-02T22:05:48.306Z,4.87
2019-02-02T22:07:51.374Z,4.78
2019-02-02T22:09:54.733Z,4.68
2019-02-02T22:11:58.008Z,4.61
2019-02-02T22:14:04.310Z,4.55
2019-02-02T22:16:09.348Z,4.52
2019-02-02T22:18:12.205Z,4.52
2019-02-02T22:20:15.805Z,4.51
2019-02-02T22:22:19.960Z,4.47
2019-02-02T22:24:23.176Z,4.47
2019-02-02T22:26:26.270Z,4.47
2019-02-02T22:28:29.469Z,4.48
2019-02-02T22:30:33.771Z,4.52
2019-02-02T22:32:37.886Z,4.55
2019-02-02T22:34:40.829Z,4.61
2019-02-02T22:36:44.869Z,4.69
2019-02-02T22:38:51.757Z,4.77
2019-02-02T22:40:55.363Z,4.80
2019-02-02T22:42:58.451Z,4.87
2019-02-02T22:45:01.635Z,4.93
2019-02-02T22:47:05.622Z,4.98
2019-02-02T22:49:08.964Z,5.02
2019-02-02T22:51:12.458Z,5.03
2019-02-02T22:53:15.470Z,5.03
2019-02-02T22:55:18.951Z,5.01
2019-02-02T22:57:22.323Z,4.99
2019-02-02T22:59:25.557Z,4.98
2019-02-02T23:01:48.307Z,4.97
2019-02-02T23:04:24.911Z,5.01
2019-02-02T23:06:41.025Z,5.02
2019-02-02T23:09:14.221Z,5.05
2019-02-02T23:11:46.765Z,5.06
2019-02-02T23:14:40.819Z,5.04
2019-02-02T23:16:43.865Z,5.04
2019-02-02T23:18:48.732Z,5.01
2019-02-02T23:20:54.824Z,5.02
2019-02-02T23:22:58.211Z,5.01
2019-02-02T23:25:01.152Z,5.04
2019-02-02T23:27:04.227Z,5.07
2019-02-02T23:29:07.707Z,5.11
2019-02-02T23:31:10.727Z,5.16
2019-02-02T23:33:13.970Z,5.13
2019-02-02T23:35:16.854Z,5.08
2019-02-02T23:37:19.846Z,5.07
2019-02-02T23:39:23.939Z,5.07
2019-02-02T23:41:26.999Z,5.09
2019-02-02T23:43:30.317Z,5.06
2019-02-02T23:45:33.213Z,5.04
2019-02-02T23:47:36.122Z,5.05
2019-02-02T23:49:39.045Z,5.08
2019-02-02T23:51:42.063Z,5.09
2019-02-02T23:53:45.348Z,5.13
2019-02-02T23:55:48.314Z,5.13
2019-02-02T23:57:51.216Z,5.12
2019-02-02T23:59:54.264Z,5.10
